Pacific Valley, California
Current Conditions -  °F | °C
As of 8:35 AM on Saturday 20 Dec 2014 (Local Time) from KMRY Reporting Station
Light Rain Light Rain  
Wind Chill: 57°   Ceiling: 800
Heat Index: 57°   Visibility: 10mi
Dew Point: 55°   Wind: 0mph
Humidity: 94%   Direction: NA
Pressure: 30.2"   Gusts: NA
Location:  36.2518°N, 121.704°W
Report Text: KMRY 201635Z 00000KT 10SM -RA BKN008 BKN017 OVC026 14/13 A3020 RMK AO2 CIG 006V012 P0000
Loading
Personal Weather Stations






























Interactive Weather Map New forecast layout! Learn more

10-Day Weather Forecast

Advertisements
Track Severe Weather on mobile